Time;durP1;ratioP1;P1;durP2;ratioP2;P2;SDS_P1;SDS_P2;PMS_P1;PMS_P2;Temp;Humidity;BMP_temperature;BMP_pressure;BME280_temperature;BME280_humidity;BME280_pressure;Samples;Min_cycle;Max_cycle;Signal;HPM_P1;HPM_P2
2022/12/26 00:00:55;;;;;;;16.67;8.67;;;;;;;;;;5118119;28;20236;-66
2022/12/26 00:03:24;;;;;;;11.87;8.90;;;;;;;;;;5117631;28;20229;-66
2022/12/26 00:05:52;;;;;;;11.77;8.83;;;;;;;;;;5117683;28;20224;-66
2022/12/26 00:08:20;;;;;;;10.80;8.20;;;;;;;;;;5117939;28;20268;-66
2022/12/26 00:10:48;;;;;;;13.37;8.13;;;;;;;;;;5117776;28;20204;-66
2022/12/26 00:13:16;;;;;;;14.10;8.60;;;;;;;;;;5117540;28;20725;-66
2022/12/26 00:16:07;;;;;;;23.67;9.13;;;;;;;;;;5110913;28;20204;-66
2022/12/26 00:18:36;;;;;;;12.80;8.67;;;;;;;;;;5114114;28;20233;-66
2022/12/26 00:21:04;;;;;;;11.63;8.80;;;;;;;;;;5117244;28;20211;-66
2022/12/26 00:23:32;;;;;;;12.30;9.23;;;;;;;;;;5120529;28;20229;-66
2022/12/26 00:26:02;;;;;;;13.03;9.00;;;;;;;;;;5120176;28;20260;-66
2022/12/26 00:28:30;;;;;;;12.10;8.37;;;;;;;;;;5120497;28;20225;-66
2022/12/26 00:30:58;;;;;;;11.63;8.50;;;;;;;;;;5120297;28;20207;-66
2022/12/26 00:33:28;;;;;;;14.33;8.87;;;;;;;;;;5121028;28;20257;-66
2022/12/26 00:36:00;;;;;;;14.37;8.80;;;;;;;;;;5120376;28;20205;-66
2022/12/26 00:38:28;;;;;;;10.50;8.70;;;;;;;;;;5121104;28;20208;-66
2022/12/26 00:40:56;;;;;;;15.60;10.43;;;;;;;;;;5120720;28;20216;-66
2022/12/26 00:43:24;;;;;;;13.47;10.00;;;;;;;;;;5120745;28;20227;-66
2022/12/26 00:45:52;;;;;;;14.93;9.60;;;;;;;;;;5120276;28;20703;-66
2022/12/26 00:48:20;;;;;;;13.50;9.00;;;;;;;;;;5118932;28;20241;-65
2022/12/26 00:50:50;;;;;;;11.23;8.53;;;;;;;;;;5118812;28;20200;-66
2022/12/26 00:53:18;;;;;;;13.13;9.13;;;;;;;;;;5119007;28;20220;-66
2022/12/26 00:55:46;;;;;;;14.13;8.87;;;;;;;;;;5118724;28;20219;-66
2022/12/26 00:58:14;;;;;;;14.60;9.10;;;;;;;;;;5118786;28;20326;-66
2022/12/26 01:00:42;;;;;;;12.13;8.00;;;;;;;;;;5118634;28;20209;-67
2022/12/26 01:03:11;;;;;;;11.57;8.13;;;;;;;;;;5120760;28;20229;-67
2022/12/26 01:05:40;;;;;;;12.37;8.43;;;;;;;;;;5120246;28;20229;-67
2022/12/26 01:08:10;;;;;;;10.80;8.23;;;;;;;;;;5120721;28;20213;-67
2022/12/26 01:10:48;;;;;;;13.70;8.63;;;;;;;;;;5120447;28;20211;-67
2022/12/26 01:13:16;;;;;;;11.90;8.80;;;;;;;;;;5120542;27;20224;-67
2022/12/26 01:15:47;;;;;;;17.63;9.10;;;;;;;;;;5120256;28;20619;-67
2022/12/26 01:18:15;;;;;;;11.27;7.93;;;;;;;;;;5120274;27;20240;-67
2022/12/26 01:20:43;;;;;;;12.13;8.07;;;;;;;;;;5119856;28;20264;-67
2022/12/26 01:23:13;;;;;;;12.90;8.90;;;;;;;;;;5120241;28;20236;-67
2022/12/26 01:25:41;;;;;;;12.37;8.00;;;;;;;;;;5120363;28;20231;-67
2022/12/26 01:28:29;;;;;;;12.27;7.87;;;;;;;;;;5119988;28;20211;-67
2022/12/26 01:31:00;;;;;;;9.93;7.30;;;;;;;;;;5120054;28;20636;-66
2022/12/26 01:33:28;;;;;;;13.17;7.97;;;;;;;;;;5119082;28;20235;-67
2022/12/26 01:35:56;;;;;;;10.67;7.63;;;;;;;;;;5119483;28;20259;-66
2022/12/26 01:38:26;;;;;;;11.27;7.70;;;;;;;;;;5119901;28;20565;-67
2022/12/26 01:41:15;;;;;;;14.00;8.90;;;;;;;;;;5119795;28;20614;-67
2022/12/26 01:43:50;;;;;;;13.07;8.83;;;;;;;;;;5119692;28;20734;-67
2022/12/26 01:46:20;;;;;;;10.60;8.03;;;;;;;;;;5120003;28;20255;-67
2022/12/26 01:48:48;;;;;;;11.27;8.23;;;;;;;;;;5119645;28;20209;-67
2022/12/26 01:51:17;;;;;;;13.50;8.77;;;;;;;;;;5119524;28;20209;-67
2022/12/26 01:53:47;;;;;;;9.70;8.47;;;;;;;;;;5119660;28;20235;-67
2022/12/26 01:56:17;;;;;;;13.00;8.23;;;;;;;;;;5119833;28;20230;-67
2022/12/26 01:58:47;;;;;;;13.23;9.07;;;;;;;;;;5119400;28;20209;-67
2022/12/26 02:01:15;;;;;;;11.57;9.30;;;;;;;;;;5105412;28;20254;-67
2022/12/26 02:06:31;;;;;;;16.60;10.33;;;;;;;;;;5118968;28;20224;-67
2022/12/26 02:09:00;;;;;;;14.13;10.23;;;;;;;;;;5119092;28;20207;-66
2022/12/26 02:11:31;;;;;;;12.40;10.20;;;;;;;;;;5118858;28;20209;-67
2022/12/26 02:14:00;;;;;;;13.63;10.43;;;;;;;;;;5117627;28;20731;-67
2022/12/26 02:16:28;;;;;;;13.50;10.03;;;;;;;;;;5119194;28;20197;-66
2022/12/26 02:18:57;;;;;;;12.33;8.57;;;;;;;;;;5118579;28;20646;-66
2022/12/26 02:21:47;;;;;;;12.93;9.27;;;;;;;;;;5118475;28;20676;-66
2022/12/26 02:24:24;;;;;;;13.53;9.10;;;;;;;;;;5118844;28;20311;-66
2022/12/26 02:27:05;;;;;;;12.83;10.03;;;;;;;;;;5119031;28;20311;-66
2022/12/26 02:29:52;;;;;;;12.03;9.33;;;;;;;;;;5118617;28;20196;-66
2022/12/26 02:32:26;;;;;;;11.40;9.00;;;;;;;;;;5117074;28;20283;-66
2022/12/26 02:34:59;;;;;;;12.13;8.60;;;;;;;;;;5116492;28;20239;-66
2022/12/26 02:37:35;;;;;;;16.80;11.63;;;;;;;;;;5116867;28;20697;-66
2022/12/26 02:40:10;;;;;;;18.37;13.27;;;;;;;;;;5117030;28;20213;-66
2022/12/26 02:42:43;;;;;;;10.97;8.93;;;;;;;;;;5116741;28;20299;-65
2022/12/26 02:48:07;;;;;;;15.30;10.40;;;;;;;;;;5118430;28;20760;-66
2022/12/26 03:13:28;;;;;;;10.50;8.73;;;;;;;;;;5118201;28;20260;-66
2022/12/26 03:18:45;;;;;;;16.20;8.33;;;;;;;;;;5096820;28;20263;-66
2022/12/26 03:21:30;;;;;;;8.37;7.30;;;;;;;;;;5110271;28;20291;-66
2022/12/26 03:23:58;;;;;;;11.93;7.00;;;;;;;;;;5118143;28;20286;-66
2022/12/26 03:26:42;;;;;;;14.73;8.90;;;;;;;;;;5118275;28;20220;-66
2022/12/26 03:31:58;;;;;;;11.77;7.80;;;;;;;;;;5118093;28;20216;-66
2022/12/26 03:34:27;;;;;;;11.73;8.13;;;;;;;;;;5117967;28;20231;-66
2022/12/26 03:37:08;;;;;;;11.53;8.50;;;;;;;;;;5118065;28;20200;-66
2022/12/26 04:44:13;;;;;;;12.60;8.10;;;;;;;;;;5112260;28;20220;-67
2022/12/26 04:46:41;;;;;;;12.10;8.97;;;;;;;;;;5120615;28;20714;-66
2022/12/26 04:51:56;;;;;;;15.47;10.77;;;;;;;;;;5120863;28;20232;-66
2022/12/26 04:54:24;;;;;;;12.13;9.27;;;;;;;;;;5120628;28;20224;-67
2022/12/26 04:56:53;;;;;;;16.80;9.33;;;;;;;;;;5120768;28;20255;-67
2022/12/26 04:59:22;;;;;;;20.90;12.90;;;;;;;;;;5120863;28;20239;-66
2022/12/26 05:10:13;;;;;;;15.40;10.07;;;;;;;;;;5120654;28;20201;-65
2022/12/26 05:12:41;;;;;;;15.77;9.60;;;;;;;;;;5120386;28;20599;-66
2022/12/26 05:15:11;;;;;;;12.57;8.40;;;;;;;;;;5120567;28;20236;-64
2022/12/26 05:28:49;;;;;;;12.50;8.77;;;;;;;;;;5120031;28;20239;-65
2022/12/26 05:31:18;;;;;;;13.63;8.53;;;;;;;;;;5119973;28;20251;-66
2022/12/26 05:36:33;;;;;;;13.73;9.30;;;;;;;;;;5120012;28;20283;-65
2022/12/26 05:39:01;;;;;;;9.57;8.20;;;;;;;;;;5120101;28;20682;-66
2022/12/26 05:41:29;;;;;;;11.83;8.47;;;;;;;;;;5119665;28;20598;-65
2022/12/26 05:43:58;;;;;;;15.00;8.73;;;;;;;;;;5120006;28;20225;-65
2022/12/26 05:46:27;;;;;;;12.17;8.57;;;;;;;;;;5119986;28;20211;-66
2022/12/26 05:48:55;;;;;;;13.40;8.20;;;;;;;;;;5119581;28;20325;-66
2022/12/26 05:51:23;;;;;;;13.23;7.87;;;;;;;;;;5119548;28;20217;-66
2022/12/26 05:53:52;;;;;;;14.13;8.47;;;;;;;;;;5119492;28;20671;-66
2022/12/26 05:56:20;;;;;;;10.60;8.10;;;;;;;;;;5119493;28;20671;-66
2022/12/26 05:58:53;;;;;;;11.77;8.47;;;;;;;;;;5119327;28;20663;-65
2022/12/26 06:01:21;;;;;;;12.43;8.10;;;;;;;;;;5119295;28;20201;-66
2022/12/26 06:03:51;;;;;;;12.77;8.03;;;;;;;;;;5119456;28;20229;-66
2022/12/26 06:06:20;;;;;;;11.10;8.80;;;;;;;;;;5119304;28;20222;-66
2022/12/26 06:08:48;;;;;;;12.83;8.30;;;;;;;;;;5119101;28;20255;-65
2022/12/26 06:11:17;;;;;;;9.67;7.60;;;;;;;;;;5119533;28;20219;-66
2022/12/26 06:13:45;;;;;;;11.00;7.67;;;;;;;;;;5119274;28;20225;-67
2022/12/26 06:16:14;;;;;;;8.00;6.93;;;;;;;;;;5119194;28;20651;-66
2022/12/26 06:18:42;;;;;;;10.07;7.13;;;;;;;;;;5118438;28;20233;-66
2022/12/26 06:21:13;;;;;;;10.47;7.77;;;;;;;;;;5118932;28;20209;-66
2022/12/26 06:23:41;;;;;;;11.97;7.27;;;;;;;;;;5118938;28;20252;-66
2022/12/26 06:26:11;;;;;;;9.70;6.60;;;;;;;;;;5118992;28;20208;-66
2022/12/26 06:28:40;;;;;;;9.17;7.17;;;;;;;;;;5119107;28;20303;-66
2022/12/26 06:31:10;;;;;;;10.80;7.00;;;;;;;;;;5118894;28;20215;-66
2022/12/26 06:33:38;;;;;;;7.77;5.73;;;;;;;;;;5118799;28;20625;-67
2022/12/26 06:36:07;;;;;;;8.80;6.50;;;;;;;;;;5118392;28;20638;-67
2022/12/26 06:38:37;;;;;;;11.93;6.80;;;;;;;;;;5119058;28;20215;-66
2022/12/26 06:41:05;;;;;;;7.77;6.53;;;;;;;;;;5118957;28;20207;-67
2022/12/26 06:43:33;;;;;;;8.03;5.87;;;;;;;;;;5118823;28;20220;-66
2022/12/26 06:46:02;;;;;;;7.00;5.70;;;;;;;;;;5118838;28;20207;-67
2022/12/26 06:48:30;;;;;;;6.37;5.67;;;;;;;;;;5118468;28;20341;-66
2022/12/26 06:51:02;;;;;;;7.90;6.20;;;;;;;;;;5118399;28;20208;-67
2022/12/26 06:53:30;;;;;;;15.60;5.77;;;;;;;;;;5118757;28;20323;-67
2022/12/26 06:56:06;;;;;;;9.63;5.73;;;;;;;;;;5118465;28;20211;-66
2022/12/26 06:58:34;;;;;;;7.47;5.70;;;;;;;;;;5118787;28;20256;-66
2022/12/26 07:01:06;;;;;;;11.20;5.63;;;;;;;;;;5118386;28;20566;-66
2022/12/26 07:03:34;;;;;;;7.67;6.47;;;;;;;;;;5118613;28;20267;-67
2022/12/26 07:06:03;;;;;;;7.33;5.57;;;;;;;;;;5118102;28;20233;-66
2022/12/26 07:08:31;;;;;;;7.80;5.77;;;;;;;;;;5118121;28;20719;-66
2022/12/26 07:10:59;;;;;;;8.87;5.63;;;;;;;;;;5118604;28;20217;-66
2022/12/26 07:13:28;;;;;;;7.30;5.20;;;;;;;;;;5118160;28;20247;-66
2022/12/26 07:15:58;;;;;;;7.43;5.70;;;;;;;;;;5118247;28;20232;-66
2022/12/26 07:18:26;;;;;;;8.33;5.93;;;;;;;;;;5118494;28;20229;-66
2022/12/26 07:20:54;;;;;;;6.27;5.37;;;;;;;;;;5117808;28;20254;-66
2022/12/26 07:23:22;;;;;;;7.47;6.00;;;;;;;;;;5118279;28;20221;-66
2022/12/26 07:25:50;;;;;;;7.23;5.80;;;;;;;;;;5118149;28;20232;-66
2022/12/26 07:28:19;;;;;;;8.73;6.00;;;;;;;;;;5118252;28;20231;-66
2022/12/26 07:30:48;;;;;;;9.33;5.60;;;;;;;;;;5118998;28;20714;-66
2022/12/26 07:33:17;;;;;;;7.20;5.60;;;;;;;;;;5122270;28;20717;-66
2022/12/26 07:35:45;;;;;;;8.17;5.97;;;;;;;;;;5121965;28;20291;-66
2022/12/26 07:38:13;;;;;;;9.40;6.03;;;;;;;;;;5122341;28;20250;-66
2022/12/26 07:40:41;;;;;;;8.50;5.30;;;;;;;;;;5122178;28;20555;-66
2022/12/26 07:43:09;;;;;;;8.67;5.33;;;;;;;;;;5121999;28;20220;-66
2022/12/26 07:45:37;;;;;;;7.57;5.20;;;;;;;;;;5122440;28;20216;-65
2022/12/26 07:48:13;;;;;;;5.67;4.90;;;;;;;;;;5122325;28;20281;-66
2022/12/26 07:50:45;;;;;;;8.50;5.57;;;;;;;;;;5121543;28;20216;-66
2022/12/26 07:53:14;;;;;;;10.37;5.93;;;;;;;;;;5122162;28;20235;-66
2022/12/26 07:55:42;;;;;;;14.50;6.03;;;;;;;;;;5122095;28;20200;-66
2022/12/26 07:58:10;;;;;;;8.77;6.20;;;;;;;;;;5121868;28;20226;-66
2022/12/26 08:00:38;;;;;;;8.93;5.73;;;;;;;;;;5121831;28;20209;-66
2022/12/26 08:03:06;;;;;;;9.60;6.33;;;;;;;;;;5121813;27;20233;-66
2022/12/26 08:05:36;;;;;;;9.50;6.30;;;;;;;;;;5121612;28;20292;-65
2022/12/26 08:08:04;;;;;;;5.80;5.10;;;;;;;;;;5121969;27;20205;-66
2022/12/26 08:10:32;;;;;;;9.43;5.83;;;;;;;;;;5121578;28;20618;-66
2022/12/26 08:13:00;;;;;;;9.93;5.50;;;;;;;;;;5121610;28;20601;-66
2022/12/26 08:15:28;;;;;;;7.53;5.90;;;;;;;;;;5121805;28;20253;-66
2022/12/26 08:17:56;;;;;;;9.30;6.17;;;;;;;;;;5121562;28;20244;-66
2022/12/26 08:20:24;;;;;;;7.83;5.73;;;;;;;;;;5121014;28;20624;-66
2022/12/26 08:22:54;;;;;;;7.10;5.40;;;;;;;;;;5121596;28;20225;-66
2022/12/26 08:25:27;;;;;;;10.43;5.37;;;;;;;;;;5121538;28;20214;-66
2022/12/26 08:27:55;;;;;;;13.00;6.00;;;;;;;;;;5121548;28;20288;-65
2022/12/26 08:30:23;;;;;;;10.90;6.23;;;;;;;;;;5121175;28;20263;-65
2022/12/26 08:32:51;;;;;;;9.83;5.80;;;;;;;;;;5121290;28;20267;-65
2022/12/26 08:35:19;;;;;;;11.43;5.87;;;;;;;;;;5120777;28;20284;-66
2022/12/26 08:37:47;;;;;;;11.33;6.53;;;;;;;;;;5121061;28;20283;-66
2022/12/26 08:40:16;;;;;;;17.90;12.43;;;;;;;;;;5121022;28;20253;-66
2022/12/26 08:43:04;;;;;;;9.17;7.43;;;;;;;;;;5120381;28;20221;-66
2022/12/26 08:45:59;;;;;;;8.07;5.73;;;;;;;;;;5120874;27;20709;-66
2022/12/26 08:48:27;;;;;;;7.60;5.20;;;;;;;;;;5121058;28;20275;-66
2022/12/26 08:50:56;;;;;;;9.13;5.53;;;;;;;;;;5120451;28;20232;-66
2022/12/26 08:53:24;;;;;;;10.83;6.00;;;;;;;;;;5120747;27;20228;-66
2022/12/26 08:55:53;;;;;;;11.13;5.63;;;;;;;;;;5120681;28;20208;-66
2022/12/26 08:58:21;;;;;;;10.67;6.30;;;;;;;;;;5120959;28;20204;-66
2022/12/26 09:00:52;;;;;;;7.13;5.23;;;;;;;;;;5120819;28;20287;-66
2022/12/26 09:03:22;;;;;;;13.53;6.27;;;;;;;;;;5120852;28;20288;-65
2022/12/26 09:05:52;;;;;;;6.97;5.07;;;;;;;;;;5120470;28;20208;-66
2022/12/26 09:08:20;;;;;;;9.03;5.00;;;;;;;;;;5120764;28;20235;-66
2022/12/26 09:10:48;;;;;;;7.70;4.87;;;;;;;;;;5120326;27;20698;-66
2022/12/26 09:13:19;;;;;;;8.63;4.80;;;;;;;;;;5120644;28;20255;-66
2022/12/26 09:15:47;;;;;;;8.47;5.00;;;;;;;;;;5120658;28;20211;-66
2022/12/26 09:18:15;;;;;;;8.30;4.63;;;;;;;;;;5120247;27;20241;-66
2022/12/26 09:20:43;;;;;;;8.50;4.40;;;;;;;;;;5119845;28;20279;-65
2022/12/26 09:23:11;;;;;;;4.70;3.90;;;;;;;;;;5120145;28;20602;-66
2022/12/26 09:25:39;;;;;;;7.87;4.77;;;;;;;;;;5120183;28;20702;-66
2022/12/26 09:28:07;;;;;;;9.27;3.57;;;;;;;;;;5120313;28;20209;-67
2022/12/26 09:30:36;;;;;;;5.97;4.00;;;;;;;;;;5120227;28;20231;-67
2022/12/26 09:33:06;;;;;;;8.63;4.63;;;;;;;;;;5120114;28;20228;-66
2022/12/26 09:35:34;;;;;;;6.57;3.80;;;;;;;;;;5120097;28;20250;-66
2022/12/26 09:38:02;;;;;;;6.40;4.87;;;;;;;;;;5120167;28;20205;-66
2022/12/26 09:40:33;;;;;;;6.60;3.87;;;;;;;;;;5120181;28;20207;-66
2022/12/26 09:43:07;;;;;;;4.33;3.93;;;;;;;;;;5119561;28;20221;-66
2022/12/26 09:45:42;;;;;;;9.00;4.50;;;;;;;;;;5120681;28;20261;-66
2022/12/26 09:48:14;;;;;;;7.27;4.30;;;;;;;;;;5119591;28;20666;-66
2022/12/26 09:50:42;;;;;;;5.90;3.93;;;;;;;;;;5119473;27;20315;-66
2022/12/26 09:53:12;;;;;;;6.43;4.40;;;;;;;;;;5118772;28;20282;-66
2022/12/26 09:55:42;;;;;;;9.33;4.33;;;;;;;;;;5119492;28;20578;-66
2022/12/26 09:58:15;;;;;;;6.13;4.73;;;;;;;;;;5119769;28;20244;-66
2022/12/26 10:00:48;;;;;;;5.73;4.03;;;;;;;;;;5119554;28;20209;-65
2022/12/26 10:03:17;;;;;;;7.43;4.37;;;;;;;;;;5119572;28;20224;-66
2022/12/26 10:05:51;;;;;;;7.87;4.00;;;;;;;;;;5118761;28;20268;-66
2022/12/26 10:08:25;;;;;;;7.10;4.27;;;;;;;;;;5119506;28;20205;-65
2022/12/26 10:10:58;;;;;;;4.60;4.20;;;;;;;;;;5119064;28;20251;-66
2022/12/26 10:13:29;;;;;;;5.20;3.93;;;;;;;;;;5119285;28;20256;-66
2022/12/26 10:16:00;;;;;;;7.53;4.07;;;;;;;;;;5119409;28;20273;-66
2022/12/26 10:18:34;;;;;;;9.57;3.93;;;;;;;;;;5118922;28;20624;-66
2022/12/26 10:21:11;;;;;;;6.97;4.50;;;;;;;;;;5118756;28;20200;-65
2022/12/26 10:23:40;;;;;;;6.70;4.50;;;;;;;;;;5119021;28;20645;-65
2022/12/26 10:26:11;;;;;;;9.87;4.13;;;;;;;;;;5118959;28;20233;-66
2022/12/26 10:28:41;;;;;;;6.63;5.20;;;;;;;;;;5119359;28;20248;-66
2022/12/26 10:31:15;;;;;;;11.87;4.67;;;;;;;;;;5118852;28;20248;-66
2022/12/26 10:33:46;;;;;;;8.97;4.60;;;;;;;;;;5119122;28;20229;-66
2022/12/26 10:36:17;;;;;;;7.10;4.00;;;;;;;;;;5118688;28;20232;-65
2022/12/26 10:38:47;;;;;;;8.13;4.77;;;;;;;;;;5118844;28;20270;-66
2022/12/26 10:41:20;;;;;;;7.47;4.70;;;;;;;;;;5118970;28;20204;-66
2022/12/26 10:43:48;;;;;;;10.33;4.43;;;;;;;;;;5109634;28;20256;-65
2022/12/26 10:46:39;;;;;;;11.13;4.50;;;;;;;;;;5118814;27;20205;-65
2022/12/26 10:49:10;;;;;;;7.57;4.30;;;;;;;;;;5118101;28;20204;-66
2022/12/26 10:51:38;;;;;;;5.57;4.00;;;;;;;;;;5118471;28;20227;-66
2022/12/26 10:54:10;;;;;;;5.33;3.67;;;;;;;;;;5118570;28;20282;-66
2022/12/26 10:56:39;;;;;;;7.33;3.83;;;;;;;;;;5118737;28;20230;-65
2022/12/26 10:59:12;;;;;;;6.23;4.30;;;;;;;;;;5118376;28;20205;-66
2022/12/26 11:01:46;;;;;;;6.57;3.90;;;;;;;;;;5118382;28;20224;-66
2022/12/26 11:04:15;;;;;;;10.77;4.10;;;;;;;;;;5117861;28;20750;-66
2022/12/26 11:07:08;;;;;;;5.73;4.23;;;;;;;;;;5118318;28;20591;-65
2022/12/26 11:09:39;;;;;;;6.00;3.73;;;;;;;;;;5118583;28;20205;-67
2022/12/26 11:12:16;;;;;;;5.13;3.60;;;;;;;;;;5118208;28;20221;-65
2022/12/26 11:14:45;;;;;;;8.17;4.20;;;;;;;;;;5118581;28;20204;-67
2022/12/26 11:17:24;;;;;;;7.80;4.00;;;;;;;;;;5118447;28;20215;-66
2022/12/26 11:20:09;;;;;;;7.77;3.90;;;;;;;;;;5117562;28;20714;-66
2022/12/26 11:22:38;;;;;;;6.37;3.90;;;;;;;;;;5118111;28;20252;-65
2022/12/26 11:25:15;;;;;;;6.47;3.90;;;;;;;;;;5118328;28;20201;-64
2022/12/26 11:27:44;;;;;;;6.77;4.23;;;;;;;;;;5118478;28;20211;-64
2022/12/26 11:30:16;;;;;;;6.10;3.97;;;;;;;;;;5117863;28;20209;-64
2022/12/26 11:32:47;;;;;;;6.30;3.80;;;;;;;;;;5117937;28;20259;-65
2022/12/26 11:35:18;;;;;;;4.37;3.70;;;;;;;;;;5117488;28;20744;-64
2022/12/26 11:37:47;;;;;;;5.60;3.70;;;;;;;;;;5118008;28;20320;-64
2022/12/26 11:40:17;;;;;;;6.50;3.87;;;;;;;;;;5118264;28;20291;-65
2022/12/26 11:42:48;;;;;;;4.63;3.70;;;;;;;;;;5118171;28;20244;-65
2022/12/26 11:45:20;;;;;;;5.83;3.80;;;;;;;;;;5118057;28;20209;-64
2022/12/26 11:47:50;;;;;;;8.03;4.17;;;;;;;;;;5118214;28;20207;-65
2022/12/26 11:50:20;;;;;;;8.30;4.00;;;;;;;;;;5117712;28;20200;-65
2022/12/26 11:52:51;;;;;;;7.37;5.10;;;;;;;;;;5117716;28;20308;-64
2022/12/26 11:55:27;;;;;;;6.47;4.33;;;;;;;;;;5118350;28;20209;-63
2022/12/26 11:57:56;;;;;;;7.43;4.10;;;;;;;;;;5104608;28;20204;-63
2022/12/26 12:00:26;;;;;;;11.37;4.83;;;;;;;;;;5117482;28;20581;-64
2022/12/26 12:02:55;;;;;;;9.70;4.73;;;;;;;;;;5117487;28;20228;-64
2022/12/26 12:05:31;;;;;;;8.23;4.10;;;;;;;;;;5117634;28;20201;-64
2022/12/26 12:08:11;;;;;;;7.37;4.30;;;;;;;;;;5117685;28;20240;-66
2022/12/26 12:10:59;;;;;;;6.13;4.20;;;;;;;;;;5117685;28;20244;-65
2022/12/26 12:13:42;;;;;;;8.03;4.23;;;;;;;;;;5117496;28;20688;-66
2022/12/26 12:16:13;;;;;;;5.97;4.17;;;;;;;;;;5116703;28;20251;-64
2022/12/26 12:18:49;;;;;;;9.47;4.80;;;;;;;;;;5121318;28;20247;-64
2022/12/26 12:21:21;;;;;;;6.33;4.63;;;;;;;;;;5113066;28;20316;-64
2022/12/26 12:24:04;;;;;;;8.10;5.20;;;;;;;;;;5121554;28;20224;-65
2022/12/26 12:26:35;;;;;;;7.83;5.63;;;;;;;;;;5121298;28;20209;-65
2022/12/26 12:29:23;;;;;;;8.73;5.43;;;;;;;;;;5121581;28;20236;-65
2022/12/26 12:31:59;;;;;;;7.20;5.17;;;;;;;;;;5119302;28;20711;-64
2022/12/26 12:34:37;;;;;;;8.73;5.70;;;;;;;;;;5121043;28;20225;-64
2022/12/26 12:37:17;;;;;;;10.30;6.00;;;;;;;;;;5121200;28;20205;-64
2022/12/26 12:39:51;;;;;;;6.70;5.37;;;;;;;;;;5121335;28;20208;-65
2022/12/26 12:42:25;;;;;;;8.40;5.43;;;;;;;;;;5121149;28;20193;-65
2022/12/26 12:45:01;;;;;;;7.60;5.53;;;;;;;;;;5120860;28;20207;-64
2022/12/26 12:47:44;;;;;;;11.10;6.40;;;;;;;;;;5121029;28;20230;-64
2022/12/26 12:50:18;;;;;;;9.23;6.13;;;;;;;;;;5120758;28;20236;-65
2022/12/26 12:52:49;;;;;;;7.23;6.53;;;;;;;;;;5120738;28;20256;-65
2022/12/26 12:55:22;;;;;;;11.57;6.47;;;;;;;;;;5120751;28;20586;-65
2022/12/26 12:57:52;;;;;;;10.50;6.47;;;;;;;;;;5120926;28;20236;-65
2022/12/26 13:00:22;;;;;;;8.00;6.20;;;;;;;;;;5120798;28;20209;-66
2022/12/26 13:02:54;;;;;;;10.27;6.50;;;;;;;;;;5120426;28;20217;-66
2022/12/26 13:05:28;;;;;;;7.90;6.43;;;;;;;;;;5120309;28;20211;-65
2022/12/26 13:08:06;;;;;;;7.77;6.10;;;;;;;;;;5120698;28;20204;-65
2022/12/26 13:10:36;;;;;;;16.20;9.07;;;;;;;;;;5120391;28;20231;-65
2022/12/26 13:13:16;;;;;;;13.17;8.43;;;;;;;;;;5120176;28;20691;-65
2022/12/26 13:15:45;;;;;;;9.57;6.50;;;;;;;;;;5115236;28;20242;-65
2022/12/26 13:18:15;;;;;;;11.17;7.10;;;;;;;;;;5109257;28;20260;-65
2022/12/26 13:20:46;;;;;;;11.07;6.37;;;;;;;;;;5117889;28;20242;-65
2022/12/26 13:26:11;;;;;;;10.03;7.13;;;;;;;;;;5119895;28;20282;-64
2022/12/26 13:28:51;;;;;;;10.33;6.63;;;;;;;;;;5119707;28;20695;-66
2022/12/26 13:31:20;;;;;;;9.93;6.03;;;;;;;;;;5119838;28;20238;-64
2022/12/26 13:33:49;;;;;;;8.53;6.03;;;;;;;;;;5119429;28;20225;-65
2022/12/26 13:36:41;;;;;;;10.40;6.80;;;;;;;;;;5119632;28;20751;-65
2022/12/26 13:39:23;;;;;;;9.17;6.27;;;;;;;;;;5114338;27;20204;-65
2022/12/26 13:44:39;;;;;;;10.03;6.50;;;;;;;;;;5098518;28;20205;-65
2022/12/26 13:47:30;;;;;;;12.53;6.70;;;;;;;;;;5118570;28;20290;-65
2022/12/26 13:49:58;;;;;;;8.90;6.17;;;;;;;;;;5116939;28;20262;-66
2022/12/26 13:52:33;;;;;;;8.87;6.10;;;;;;;;;;5117854;28;20232;-65
2022/12/26 13:55:20;;;;;;;11.10;6.03;;;;;;;;;;5117908;28;20236;-66
2022/12/26 13:58:05;;;;;;;9.60;5.80;;;;;;;;;;5117491;28;20208;-66
2022/12/26 14:00:42;;;;;;;7.97;6.07;;;;;;;;;;5117576;28;20292;-65
2022/12/26 14:03:24;;;;;;;8.40;6.00;;;;;;;;;;5118798;28;20259;-66
2022/12/26 14:05:58;;;;;;;8.50;5.73;;;;;;;;;;5119115;28;20207;-66
2022/12/26 14:08:32;;;;;;;6.80;5.47;;;;;;;;;;5119363;28;20204;-66
2022/12/26 14:11:06;;;;;;;10.13;5.43;;;;;;;;;;5119451;28;20233;-66
2022/12/26 14:13:51;;;;;;;8.00;5.20;;;;;;;;;;5119236;28;20225;-66
2022/12/26 14:16:22;;;;;;;7.83;5.30;;;;;;;;;;5119075;28;20239;-66
2022/12/26 14:18:55;;;;;;;8.70;6.03;;;;;;;;;;5118703;28;20232;-66
2022/12/26 14:21:31;;;;;;;11.40;5.63;;;;;;;;;;5116606;28;20253;-66
2022/12/26 14:24:02;;;;;;;7.80;5.13;;;;;;;;;;5119379;28;20239;-66
2022/12/26 14:26:35;;;;;;;8.60;5.00;;;;;;;;;;5119000;28;20208;-67
2022/12/26 14:29:11;;;;;;;7.83;4.87;;;;;;;;;;5118996;28;20216;-66
2022/12/26 14:31:45;;;;;;;9.30;5.33;;;;;;;;;;5118912;28;20751;-67
2022/12/26 14:34:18;;;;;;;7.97;5.33;;;;;;;;;;5118435;28;20707;-66
2022/12/26 14:36:49;;;;;;;7.33;5.27;;;;;;;;;;5119212;28;20205;-66
2022/12/26 14:39:24;;;;;;;11.77;5.47;;;;;;;;;;5118445;28;20201;-67
2022/12/26 14:44:58;;;;;;;7.60;4.77;;;;;;;;;;5109006;28;20228;-66
2022/12/26 14:47:37;;;;;;;9.07;5.43;;;;;;;;;;5118833;28;20250;-66
2022/12/26 14:50:24;;;;;;;7.10;5.00;;;;;;;;;;5118453;28;20253;-66
2022/12/26 14:52:52;;;;;;;8.87;5.63;;;;;;;;;;5118446;28;20665;-66
2022/12/26 14:55:41;;;;;;;8.97;5.60;;;;;;;;;;5118690;28;20262;-66
2022/12/26 14:58:23;;;;;;;8.73;5.33;;;;;;;;;;5118813;27;20265;-67
2022/12/26 15:00:54;;;;;;;8.27;5.90;;;;;;;;;;5118664;28;20280;-65
2022/12/26 15:03:30;;;;;;;8.00;5.73;;;;;;;;;;5118242;28;20307;-65
2022/12/26 15:06:13;;;;;;;7.50;5.17;;;;;;;;;;5118290;28;20215;-66
2022/12/26 15:08:50;;;;;;;8.37;7.07;;;;;;;;;;5118537;28;20208;-65
2022/12/26 15:11:51;;;;;;;7.00;4.43;;;;;;;;;;5118537;28;20204;-65
2022/12/26 15:14:34;;;;;;;6.70;4.70;;;;;;;;;;5118240;28;20247;-65
2022/12/26 15:17:08;;;;;;;6.90;4.97;;;;;;;;;;5118197;28;20224;-65
2022/12/26 15:19:55;;;;;;;7.77;5.23;;;;;;;;;;5117470;28;20647;-65
2022/12/26 15:22:42;;;;;;;7.60;5.23;;;;;;;;;;5118173;28;20201;-65
2022/12/26 15:25:26;;;;;;;9.77;5.10;;;;;;;;;;5118283;28;20292;-65
2022/12/26 15:28:08;;;;;;;7.87;5.03;;;;;;;;;;5118061;28;20211;-65
2022/12/26 15:30:52;;;;;;;6.20;5.10;;;;;;;;;;5106793;28;20205;-65
2022/12/26 15:33:24;;;;;;;6.40;4.83;;;;;;;;;;5117864;28;20235;-65
2022/12/26 15:35:55;;;;;;;8.17;4.93;;;;;;;;;;5117668;28;20303;-65
2022/12/26 15:38:35;;;;;;;6.20;4.40;;;;;;;;;;5118230;28;20229;-65
2022/12/26 15:41:12;;;;;;;7.73;4.80;;;;;;;;;;5118273;28;20215;-65
2022/12/26 15:43:52;;;;;;;8.77;4.83;;;;;;;;;;5117979;28;20220;-65
2022/12/26 15:46:21;;;;;;;8.50;5.10;;;;;;;;;;5118071;28;20212;-65
2022/12/26 15:48:57;;;;;;;7.47;5.50;;;;;;;;;;5117738;28;20212;-65
2022/12/26 15:51:32;;;;;;;9.80;4.90;;;;;;;;;;5118145;28;20211;-65
2022/12/26 15:54:05;;;;;;;5.97;5.13;;;;;;;;;;5121752;28;20228;-66
2022/12/26 15:56:48;;;;;;;7.80;5.47;;;;;;;;;;5122033;27;20219;-65
2022/12/26 15:59:30;;;;;;;7.67;5.23;;;;;;;;;;5121608;28;20211;-65
2022/12/26 16:01:59;;;;;;;7.13;4.93;;;;;;;;;;5119608;28;20211;-66
2022/12/26 16:04:31;;;;;;;6.63;4.60;;;;;;;;;;5121288;28;20691;-65
2022/12/26 16:07:08;;;;;;;8.07;4.67;;;;;;;;;;5121708;28;20211;-66
2022/12/26 16:09:41;;;;;;;7.63;5.50;;;;;;;;;;5121527;28;20717;-66
2022/12/26 16:12:19;;;;;;;5.73;5.13;;;;;;;;;;5121898;28;20208;-65
2022/12/26 16:14:48;;;;;;;9.50;4.77;;;;;;;;;;5121458;28;21153;-66
2022/12/26 16:17:18;;;;;;;5.27;4.03;;;;;;;;;;5121749;28;20222;-65
2022/12/26 16:19:47;;;;;;;7.03;4.80;;;;;;;;;;5120817;28;20236;-65
2022/12/26 16:25:03;;;;;;;6.30;4.10;;;;;;;;;;5121363;28;20236;-65
2022/12/26 16:27:31;;;;;;;6.43;4.23;;;;;;;;;;5121562;28;20213;-65
2022/12/26 16:30:02;;;;;;;6.60;4.60;;;;;;;;;;5121636;28;20201;-66
2022/12/26 16:32:40;;;;;;;5.97;4.07;;;;;;;;;;5121344;28;20687;-66
2022/12/26 16:35:16;;;;;;;5.67;4.50;;;;;;;;;;5121343;28;20219;-64
2022/12/26 16:37:44;;;;;;;5.20;4.57;;;;;;;;;;5121424;28;20215;-65
2022/12/26 16:40:18;;;;;;;6.43;5.83;;;;;;;;;;5119090;28;20227;-64
2022/12/26 16:42:55;;;;;;;8.20;5.17;;;;;;;;;;5120780;28;20311;-65
2022/12/26 16:45:23;;;;;;;6.70;5.07;;;;;;;;;;5120914;28;20287;-66
2022/12/26 16:47:52;;;;;;;6.97;5.00;;;;;;;;;;5121039;28;20235;-64
2022/12/26 16:50:22;;;;;;;7.50;5.20;;;;;;;;;;5120523;28;20263;-65
2022/12/26 16:53:00;;;;;;;9.40;5.50;;;;;;;;;;5120926;28;20308;-65
2022/12/26 16:55:36;;;;;;;7.63;5.50;;;;;;;;;;5120493;28;20205;-66
2022/12/26 16:58:11;;;;;;;7.63;5.53;;;;;;;;;;5120747;28;20200;-65
2022/12/26 17:00:39;;;;;;;9.27;5.13;;;;;;;;;;5120683;28;20340;-64
2022/12/26 17:03:14;;;;;;;7.97;5.87;;;;;;;;;;5119834;28;20221;-65
2022/12/26 17:05:46;;;;;;;9.87;6.37;;;;;;;;;;5120145;28;20226;-66
2022/12/26 17:08:15;;;;;;;8.43;6.00;;;;;;;;;;5120679;28;20233;-65
2022/12/26 17:10:47;;;;;;;8.97;6.53;;;;;;;;;;5120485;28;20667;-66
2022/12/26 17:13:19;;;;;;;11.33;6.20;;;;;;;;;;5120560;28;20231;-65
2022/12/26 17:15:50;;;;;;;9.43;6.13;;;;;;;;;;5120695;27;20244;-66
2022/12/26 17:18:45;;;;;;;6.80;5.93;;;;;;;;;;5120029;28;20568;-66
2022/12/26 17:21:28;;;;;;;8.23;5.90;;;;;;;;;;5096117;28;20215;-66
2022/12/26 17:24:21;;;;;;;7.73;5.93;;;;;;;;;;5120171;28;20221;-66